sensor_id;sensor_type;location;lat;lon;timestamp;P1;durP1;ratioP1;P2;durP2;ratioP2
62123;SDS011;48110;47.532;19.078;2022-08-25T00:02:00;18.73;;;8.43;;
62123;SDS011;48110;47.532;19.078;2022-08-25T00:05:06;15.02;;;8.85;;
62123;SDS011;48110;47.532;19.078;2022-08-25T00:08:10;17.25;;;8.68;;
62123;SDS011;48110;47.532;19.078;2022-08-25T00:11:15;15.63;;;8.25;;
62123;SDS011;48110;47.532;19.078;2022-08-25T00:14:24;14.90;;;8.73;;
62123;SDS011;48110;47.532;19.078;2022-08-25T00:17:29;16.73;;;7.85;;
62123;SDS011;48110;47.532;19.078;2022-08-25T00:20:32;17.17;;;8.52;;
62123;SDS011;48110;47.532;19.078;2022-08-25T00:23:35;19.83;;;8.32;;
62123;SDS011;48110;47.532;19.078;2022-08-25T00:26:38;15.82;;;8.23;;
62123;SDS011;48110;47.532;19.078;2022-08-25T00:29:43;15.63;;;7.43;;
62123;SDS011;48110;47.532;19.078;2022-08-25T00:32:46;16.33;;;8.32;;
62123;SDS011;48110;47.532;19.078;2022-08-25T00:35:59;15.10;;;8.15;;
62123;SDS011;48110;47.532;19.078;2022-08-25T00:39:02;10.90;;;7.18;;
62123;SDS011;48110;47.532;19.078;2022-08-25T00:42:06;14.38;;;8.05;;
62123;SDS011;48110;47.532;19.078;2022-08-25T00:45:17;15.15;;;8.45;;
62123;SDS011;48110;47.532;19.078;2022-08-25T00:48:20;13.98;;;7.60;;
62123;SDS011;48110;47.532;19.078;2022-08-25T00:51:25;12.63;;;7.68;;
62123;SDS011;48110;47.532;19.078;2022-08-25T00:57:55;13.18;;;7.43;;
62123;SDS011;48110;47.532;19.078;2022-08-25T01:01:01;14.40;;;7.47;;
62123;SDS011;48110;47.532;19.078;2022-08-25T01:04:05;15.07;;;8.07;;
62123;SDS011;48110;47.532;19.078;2022-08-25T01:07:09;13.85;;;7.57;;
62123;SDS011;48110;47.532;19.078;2022-08-25T01:10:19;12.98;;;7.95;;
62123;SDS011;48110;47.532;19.078;2022-08-25T01:13:37;14.52;;;7.82;;
62123;SDS011;48110;47.532;19.078;2022-08-25T01:16:42;18.15;;;7.68;;
62123;SDS011;48110;47.532;19.078;2022-08-25T01:19:46;20.67;;;7.95;;
62123;SDS011;48110;47.532;19.078;2022-08-25T01:22:49;15.63;;;7.57;;
62123;SDS011;48110;47.532;19.078;2022-08-25T01:26:04;17.05;;;7.43;;
62123;SDS011;48110;47.532;19.078;2022-08-25T01:29:10;13.77;;;7.78;;
62123;SDS011;48110;47.532;19.078;2022-08-25T01:32:22;15.15;;;7.20;;
62123;SDS011;48110;47.532;19.078;2022-08-25T01:35:25;17.85;;;7.80;;
62123;SDS011;48110;47.532;19.078;2022-08-25T01:38:28;15.15;;;7.53;;
62123;SDS011;48110;47.532;19.078;2022-08-25T01:45:07;14.73;;;7.70;;
62123;SDS011;48110;47.532;19.078;2022-08-25T01:48:11;13.13;;;7.45;;
62123;SDS011;48110;47.532;19.078;2022-08-25T01:51:15;12.85;;;7.12;;
62123;SDS011;48110;47.532;19.078;2022-08-25T01:54:21;15.85;;;8.00;;
62123;SDS011;48110;47.532;19.078;2022-08-25T01:57:24;15.52;;;7.25;;
62123;SDS011;48110;47.532;19.078;2022-08-25T02:00:27;15.23;;;7.45;;
62123;SDS011;48110;47.532;19.078;2022-08-25T02:03:30;11.35;;;6.68;;
62123;SDS011;48110;47.532;19.078;2022-08-25T02:06:33;17.02;;;7.12;;
62123;SDS011;48110;47.532;19.078;2022-08-25T02:09:37;15.00;;;7.50;;
62123;SDS011;48110;47.532;19.078;2022-08-25T02:12:40;16.75;;;7.60;;
62123;SDS011;48110;47.532;19.078;2022-08-25T02:15:44;15.63;;;7.20;;
62123;SDS011;48110;47.532;19.078;2022-08-25T02:18:50;12.57;;;7.05;;
62123;SDS011;48110;47.532;19.078;2022-08-25T02:21:54;15.43;;;7.72;;
62123;SDS011;48110;47.532;19.078;2022-08-25T02:24:57;11.80;;;7.00;;
62123;SDS011;48110;47.532;19.078;2022-08-25T02:28:00;9.65;;;6.43;;
62123;SDS011;48110;47.532;19.078;2022-08-25T02:31:03;16.05;;;6.78;;
62123;SDS011;48110;47.532;19.078;2022-08-25T02:34:07;13.43;;;6.90;;
62123;SDS011;48110;47.532;19.078;2022-08-25T02:37:11;17.48;;;7.65;;
62123;SDS011;48110;47.532;19.078;2022-08-25T02:40:14;15.15;;;7.35;;
62123;SDS011;48110;47.532;19.078;2022-08-25T02:43:16;13.35;;;6.75;;
62123;SDS011;48110;47.532;19.078;2022-08-25T02:46:19;16.10;;;6.87;;
62123;SDS011;48110;47.532;19.078;2022-08-25T02:49:23;12.52;;;6.82;;
62123;SDS011;48110;47.532;19.078;2022-08-25T02:52:26;14.27;;;6.80;;
62123;SDS011;48110;47.532;19.078;2022-08-25T02:55:28;16.33;;;7.20;;
62123;SDS011;48110;47.532;19.078;2022-08-25T02:58:36;13.73;;;7.12;;
62123;SDS011;48110;47.532;19.078;2022-08-25T03:01:39;14.10;;;7.32;;
62123;SDS011;48110;47.532;19.078;2022-08-25T03:04:42;14.75;;;7.22;;
62123;SDS011;48110;47.532;19.078;2022-08-25T03:07:45;17.98;;;7.70;;
62123;SDS011;48110;47.532;19.078;2022-08-25T03:10:48;17.80;;;7.40;;
62123;SDS011;48110;47.532;19.078;2022-08-25T03:13:53;13.52;;;8.15;;
62123;SDS011;48110;47.532;19.078;2022-08-25T03:16:57;16.98;;;8.25;;
62123;SDS011;48110;47.532;19.078;2022-08-25T03:20:00;16.15;;;7.65;;
62123;SDS011;48110;47.532;19.078;2022-08-25T03:23:03;14.45;;;8.68;;
62123;SDS011;48110;47.532;19.078;2022-08-25T03:26:07;18.65;;;7.97;;
62123;SDS011;48110;47.532;19.078;2022-08-25T03:29:32;15.85;;;8.18;;
62123;SDS011;48110;47.532;19.078;2022-08-25T03:32:35;19.12;;;8.77;;
62123;SDS011;48110;47.532;19.078;2022-08-25T03:35:38;14.60;;;8.70;;
62123;SDS011;48110;47.532;19.078;2022-08-25T03:38:41;12.77;;;7.62;;
62123;SDS011;48110;47.532;19.078;2022-08-25T03:41:44;14.25;;;7.97;;
62123;SDS011;48110;47.532;19.078;2022-08-25T03:44:48;17.92;;;7.90;;
62123;SDS011;48110;47.532;19.078;2022-08-25T03:47:51;20.95;;;7.47;;
62123;SDS011;48110;47.532;19.078;2022-08-25T03:50:55;17.65;;;8.32;;
62123;SDS011;48110;47.532;19.078;2022-08-25T03:53:58;16.12;;;7.93;;
62123;SDS011;48110;47.532;19.078;2022-08-25T03:57:02;13.95;;;7.62;;
62123;SDS011;48110;47.532;19.078;2022-08-25T04:00:06;14.95;;;8.20;;
62123;SDS011;48110;47.532;19.078;2022-08-25T04:03:12;17.05;;;8.18;;
62123;SDS011;48110;47.532;19.078;2022-08-25T04:06:16;15.15;;;8.30;;
62123;SDS011;48110;47.532;19.078;2022-08-25T04:09:19;13.90;;;8.13;;
62123;SDS011;48110;47.532;19.078;2022-08-25T04:12:23;17.52;;;9.40;;
62123;SDS011;48110;47.532;19.078;2022-08-25T04:15:26;22.45;;;9.05;;
62123;SDS011;48110;47.532;19.078;2022-08-25T04:18:31;18.02;;;8.70;;
62123;SDS011;48110;47.532;19.078;2022-08-25T04:21:35;17.08;;;9.82;;
62123;SDS011;48110;47.532;19.078;2022-08-25T04:24:40;17.73;;;8.98;;
62123;SDS011;48110;47.532;19.078;2022-08-25T04:27:42;21.45;;;9.32;;
62123;SDS011;48110;47.532;19.078;2022-08-25T04:30:45;13.43;;;8.63;;
62123;SDS011;48110;47.532;19.078;2022-08-25T04:33:53;20.17;;;9.23;;
62123;SDS011;48110;47.532;19.078;2022-08-25T04:36:57;18.23;;;8.77;;
62123;SDS011;48110;47.532;19.078;2022-08-25T04:40:01;20.40;;;9.50;;
62123;SDS011;48110;47.532;19.078;2022-08-25T04:43:05;13.68;;;8.13;;
62123;SDS011;48110;47.532;19.078;2022-08-25T04:46:09;13.10;;;7.87;;
62123;SDS011;48110;47.532;19.078;2022-08-25T04:49:14;14.50;;;7.43;;
62123;SDS011;48110;47.532;19.078;2022-08-25T04:52:16;18.30;;;6.97;;
62123;SDS011;48110;47.532;19.078;2022-08-25T04:55:19;13.65;;;7.10;;
62123;SDS011;48110;47.532;19.078;2022-08-25T04:58:21;16.65;;;7.07;;
62123;SDS011;48110;47.532;19.078;2022-08-25T05:01:24;17.23;;;6.65;;
62123;SDS011;48110;47.532;19.078;2022-08-25T05:04:27;13.70;;;7.07;;
62123;SDS011;48110;47.532;19.078;2022-08-25T05:07:31;17.92;;;7.53;;
62123;SDS011;48110;47.532;19.078;2022-08-25T05:10:33;13.55;;;7.00;;
62123;SDS011;48110;47.532;19.078;2022-08-25T05:13:41;18.30;;;7.60;;
62123;SDS011;48110;47.532;19.078;2022-08-25T05:16:47;15.95;;;7.55;;
62123;SDS011;48110;47.532;19.078;2022-08-25T05:19:51;17.83;;;7.07;;
62123;SDS011;48110;47.532;19.078;2022-08-25T05:22:53;14.75;;;7.65;;
62123;SDS011;48110;47.532;19.078;2022-08-25T05:26:00;15.20;;;7.43;;
62123;SDS011;48110;47.532;19.078;2022-08-25T05:29:05;11.35;;;6.75;;
62123;SDS011;48110;47.532;19.078;2022-08-25T05:32:08;11.35;;;6.80;;
62123;SDS011;48110;47.532;19.078;2022-08-25T05:35:11;15.23;;;7.03;;
62123;SDS011;48110;47.532;19.078;2022-08-25T05:38:14;14.23;;;7.25;;
62123;SDS011;48110;47.532;19.078;2022-08-25T05:41:21;17.55;;;7.05;;
62123;SDS011;48110;47.532;19.078;2022-08-25T05:44:27;11.90;;;6.87;;
62123;SDS011;48110;47.532;19.078;2022-08-25T05:47:32;13.98;;;6.82;;
62123;SDS011;48110;47.532;19.078;2022-08-25T05:50:35;17.90;;;6.35;;
62123;SDS011;48110;47.532;19.078;2022-08-25T05:53:38;14.68;;;6.40;;
62123;SDS011;48110;47.532;19.078;2022-08-25T05:56:43;19.08;;;6.57;;
62123;SDS011;48110;47.532;19.078;2022-08-25T05:59:46;14.77;;;6.70;;
62123;SDS011;48110;47.532;19.078;2022-08-25T06:02:49;14.80;;;6.30;;
62123;SDS011;48110;47.532;19.078;2022-08-25T06:05:52;15.35;;;5.90;;
62123;SDS011;48110;47.532;19.078;2022-08-25T06:08:55;18.23;;;6.65;;
62123;SDS011;48110;47.532;19.078;2022-08-25T06:11:57;10.30;;;5.62;;
62123;SDS011;48110;47.532;19.078;2022-08-25T06:15:00;12.02;;;5.80;;
62123;SDS011;48110;47.532;19.078;2022-08-25T06:18:04;19.98;;;5.97;;
62123;SDS011;48110;47.532;19.078;2022-08-25T06:21:09;13.73;;;5.95;;
62123;SDS011;48110;47.532;19.078;2022-08-25T06:24:14;19.20;;;5.90;;
62123;SDS011;48110;47.532;19.078;2022-08-25T06:27:17;11.85;;;5.22;;
62123;SDS011;48110;47.532;19.078;2022-08-25T06:30:20;12.32;;;5.05;;
62123;SDS011;48110;47.532;19.078;2022-08-25T06:33:30;18.92;;;5.78;;
62123;SDS011;48110;47.532;19.078;2022-08-25T06:36:33;16.23;;;5.37;;
62123;SDS011;48110;47.532;19.078;2022-08-25T06:39:36;13.80;;;4.95;;
62123;SDS011;48110;47.532;19.078;2022-08-25T06:42:39;9.80;;;4.93;;
62123;SDS011;48110;47.532;19.078;2022-08-25T06:45:42;13.30;;;5.37;;
62123;SDS011;48110;47.532;19.078;2022-08-25T06:48:46;13.90;;;4.93;;
62123;SDS011;48110;47.532;19.078;2022-08-25T06:51:49;11.82;;;4.90;;
62123;SDS011;48110;47.532;19.078;2022-08-25T06:54:52;12.63;;;4.22;;
62123;SDS011;48110;47.532;19.078;2022-08-25T06:57:55;18.42;;;3.80;;
62123;SDS011;48110;47.532;19.078;2022-08-25T07:04:21;10.07;;;3.92;;
62123;SDS011;48110;47.532;19.078;2022-08-25T07:07:24;15.25;;;4.15;;
62123;SDS011;48110;47.532;19.078;2022-08-25T07:10:44;11.23;;;3.97;;
62123;SDS011;48110;47.532;19.078;2022-08-25T07:13:49;16.05;;;3.90;;
62123;SDS011;48110;47.532;19.078;2022-08-25T07:16:52;7.95;;;3.75;;
62123;SDS011;48110;47.532;19.078;2022-08-25T07:19:55;15.90;;;4.03;;
62123;SDS011;48110;47.532;19.078;2022-08-25T07:22:58;12.77;;;3.45;;
62123;SDS011;48110;47.532;19.078;2022-08-25T07:26:12;11.02;;;3.70;;
62123;SDS011;48110;47.532;19.078;2022-08-25T07:29:37;11.00;;;3.80;;
62123;SDS011;48110;47.532;19.078;2022-08-25T07:32:44;15.55;;;4.00;;
62123;SDS011;48110;47.532;19.078;2022-08-25T07:35:46;11.68;;;3.85;;
62123;SDS011;48110;47.532;19.078;2022-08-25T07:38:51;11.60;;;3.67;;
62123;SDS011;48110;47.532;19.078;2022-08-25T07:41:56;8.32;;;3.65;;
62123;SDS011;48110;47.532;19.078;2022-08-25T07:44:59;10.32;;;3.20;;
62123;SDS011;48110;47.532;19.078;2022-08-25T07:48:10;13.80;;;3.53;;
62123;SDS011;48110;47.532;19.078;2022-08-25T07:51:14;16.70;;;3.67;;
62123;SDS011;48110;47.532;19.078;2022-08-25T07:54:18;9.27;;;3.62;;
62123;SDS011;48110;47.532;19.078;2022-08-25T07:57:23;13.20;;;4.43;;
62123;SDS011;48110;47.532;19.078;2022-08-25T08:00:27;9.98;;;3.50;;
62123;SDS011;48110;47.532;19.078;2022-08-25T08:03:32;10.40;;;3.25;;
62123;SDS011;48110;47.532;19.078;2022-08-25T08:06:52;14.45;;;3.45;;
62123;SDS011;48110;47.532;19.078;2022-08-25T08:09:55;9.70;;;3.65;;
62123;SDS011;48110;47.532;19.078;2022-08-25T08:13:17;12.25;;;3.50;;
62123;SDS011;48110;47.532;19.078;2022-08-25T08:16:23;8.40;;;2.95;;
62123;SDS011;48110;47.532;19.078;2022-08-25T08:19:28;8.85;;;3.22;;
62123;SDS011;48110;47.532;19.078;2022-08-25T08:22:31;13.18;;;3.45;;
62123;SDS011;48110;47.532;19.078;2022-08-25T08:25:34;12.10;;;3.47;;
62123;SDS011;48110;47.532;19.078;2022-08-25T08:28:36;9.00;;;2.80;;
62123;SDS011;48110;47.532;19.078;2022-08-25T08:31:39;14.20;;;3.37;;
62123;SDS011;48110;47.532;19.078;2022-08-25T08:34:49;9.02;;;2.83;;
62123;SDS011;48110;47.532;19.078;2022-08-25T08:37:52;9.75;;;2.50;;
62123;SDS011;48110;47.532;19.078;2022-08-25T08:54:18;8.65;;;2.80;;
62123;SDS011;48110;47.532;19.078;2022-08-25T08:57:25;9.05;;;2.90;;
62123;SDS011;48110;47.532;19.078;2022-08-25T09:00:31;6.65;;;2.37;;
62123;SDS011;48110;47.532;19.078;2022-08-25T09:03:40;11.45;;;2.12;;
62123;SDS011;48110;47.532;19.078;2022-08-25T09:06:47;9.02;;;2.45;;
62123;SDS011;48110;47.532;19.078;2022-08-25T09:09:51;8.80;;;2.72;;
62123;SDS011;48110;47.532;19.078;2022-08-25T09:13:05;7.35;;;2.67;;
62123;SDS011;48110;47.532;19.078;2022-08-25T09:26:39;9.57;;;2.55;;
62123;SDS011;48110;47.532;19.078;2022-08-25T09:29:56;5.53;;;2.05;;
62123;SDS011;48110;47.532;19.078;2022-08-25T09:33:06;8.90;;;2.25;;
62123;SDS011;48110;47.532;19.078;2022-08-25T09:36:10;12.48;;;2.55;;
62123;SDS011;48110;47.532;19.078;2022-08-25T09:39:13;9.75;;;2.42;;
62123;SDS011;48110;47.532;19.078;2022-08-25T09:42:18;7.60;;;2.40;;
62123;SDS011;48110;47.532;19.078;2022-08-25T09:45:35;6.50;;;2.30;;
62123;SDS011;48110;47.532;19.078;2022-08-25T09:48:48;12.85;;;2.17;;
62123;SDS011;48110;47.532;19.078;2022-08-25T09:52:14;10.70;;;2.30;;
62123;SDS011;48110;47.532;19.078;2022-08-25T09:55:30;6.15;;;2.20;;
62123;SDS011;48110;47.532;19.078;2022-08-25T09:58:37;9.00;;;2.05;;
62123;SDS011;48110;47.532;19.078;2022-08-25T10:02:00;6.95;;;2.53;;
62123;SDS011;48110;47.532;19.078;2022-08-25T10:08:26;6.00;;;2.20;;
62123;SDS011;48110;47.532;19.078;2022-08-25T10:14:34;9.07;;;2.50;;
62123;SDS011;48110;47.532;19.078;2022-08-25T10:17:46;8.07;;;2.42;;
62123;SDS011;48110;47.532;19.078;2022-08-25T10:24:10;9.15;;;2.53;;
62123;SDS011;48110;47.532;19.078;2022-08-25T10:27:30;9.77;;;2.55;;
62123;SDS011;48110;47.532;19.078;2022-08-25T10:48:55;7.97;;;2.05;;
62123;SDS011;48110;47.532;19.078;2022-08-25T10:53:12;9.75;;;2.12;;
62123;SDS011;48110;47.532;19.078;2022-08-25T10:56:08;7.32;;;2.00;;
62123;SDS011;48110;47.532;19.078;2022-08-25T11:06:09;4.72;;;2.00;;
62123;SDS011;48110;47.532;19.078;2022-08-25T11:09:20;7.50;;;2.10;;
62123;SDS011;48110;47.532;19.078;2022-08-25T11:12:31;8.38;;;2.60;;
62123;SDS011;48110;47.532;19.078;2022-08-25T11:15:45;7.57;;;2.15;;
62123;SDS011;48110;47.532;19.078;2022-08-25T11:19:18;7.20;;;2.53;;
62123;SDS011;48110;47.532;19.078;2022-08-25T11:22:38;8.63;;;2.30;;
62123;SDS011;48110;47.532;19.078;2022-08-25T11:25:45;5.37;;;2.20;;
62123;SDS011;48110;47.532;19.078;2022-08-25T11:32:20;6.75;;;2.30;;
62123;SDS011;48110;47.532;19.078;2022-08-25T11:35:34;9.90;;;2.87;;
62123;SDS011;48110;47.532;19.078;2022-08-25T11:48:44;7.90;;;2.37;;
62123;SDS011;48110;47.532;19.078;2022-08-25T11:51:58;10.07;;;2.50;;
62123;SDS011;48110;47.532;19.078;2022-08-25T11:55:11;10.23;;;2.47;;
62123;SDS011;48110;47.532;19.078;2022-08-25T12:04:57;8.43;;;2.17;;
62123;SDS011;48110;47.532;19.078;2022-08-25T12:08:06;8.75;;;2.65;;
62123;SDS011;48110;47.532;19.078;2022-08-25T12:14:43;6.37;;;2.50;;
62123;SDS011;48110;47.532;19.078;2022-08-25T12:21:29;9.25;;;2.75;;
62123;SDS011;48110;47.532;19.078;2022-08-25T12:31:06;9.65;;;2.62;;
62123;SDS011;48110;47.532;19.078;2022-08-25T12:37:28;8.27;;;2.20;;
62123;SDS011;48110;47.532;19.078;2022-08-25T12:40:32;8.57;;;1.90;;
62123;SDS011;48110;47.532;19.078;2022-08-25T12:43:40;5.43;;;2.40;;
62123;SDS011;48110;47.532;19.078;2022-08-25T12:46:45;10.75;;;2.67;;
62123;SDS011;48110;47.532;19.078;2022-08-25T12:49:49;7.03;;;2.45;;
62123;SDS011;48110;47.532;19.078;2022-08-25T12:53:06;7.75;;;2.05;;
62123;SDS011;48110;47.532;19.078;2022-08-25T12:56:26;10.75;;;2.30;;
62123;SDS011;48110;47.532;19.078;2022-08-25T12:59:40;5.68;;;2.20;;
62123;SDS011;48110;47.532;19.078;2022-08-25T13:10:17;7.50;;;2.33;;
62123;SDS011;48110;47.532;19.078;2022-08-25T13:16:54;14.00;;;2.70;;
62123;SDS011;48110;47.532;19.078;2022-08-25T13:20:11;11.57;;;2.50;;
62123;SDS011;48110;47.532;19.078;2022-08-25T13:23:18;12.02;;;2.42;;
62123;SDS011;48110;47.532;19.078;2022-08-25T13:26:33;7.72;;;2.20;;
62123;SDS011;48110;47.532;19.078;2022-08-25T13:29:53;11.95;;;2.55;;
62123;SDS011;48110;47.532;19.078;2022-08-25T13:33:13;9.30;;;2.67;;
62123;SDS011;48110;47.532;19.078;2022-08-25T13:36:25;7.53;;;2.33;;
62123;SDS011;48110;47.532;19.078;2022-08-25T13:43:13;13.60;;;2.25;;
62123;SDS011;48110;47.532;19.078;2022-08-25T13:46:28;6.65;;;2.40;;
62123;SDS011;48110;47.532;19.078;2022-08-25T13:49:37;8.20;;;2.17;;
62123;SDS011;48110;47.532;19.078;2022-08-25T13:52:45;8.80;;;2.85;;
62123;SDS011;48110;47.532;19.078;2022-08-25T13:59:30;11.38;;;2.42;;
62123;SDS011;48110;47.532;19.078;2022-08-25T14:06:04;10.60;;;2.17;;
62123;SDS011;48110;47.532;19.078;2022-08-25T14:09:14;8.68;;;2.70;;
62123;SDS011;48110;47.532;19.078;2022-08-25T14:15:46;10.45;;;2.40;;
62123;SDS011;48110;47.532;19.078;2022-08-25T14:18:51;8.93;;;2.37;;
62123;SDS011;48110;47.532;19.078;2022-08-25T14:21:59;11.85;;;2.60;;
62123;SDS011;48110;47.532;19.078;2022-08-25T14:25:05;5.70;;;2.22;;
62123;SDS011;48110;47.532;19.078;2022-08-25T14:28:10;14.65;;;2.90;;
62123;SDS011;48110;47.532;19.078;2022-08-25T14:31:27;6.18;;;2.30;;
62123;SDS011;48110;47.532;19.078;2022-08-25T14:34:33;13.73;;;2.67;;
62123;SDS011;48110;47.532;19.078;2022-08-25T14:37:38;9.30;;;2.25;;
62123;SDS011;48110;47.532;19.078;2022-08-25T14:40:41;6.40;;;2.40;;
62123;SDS011;48110;47.532;19.078;2022-08-25T14:43:45;11.70;;;3.10;;
62123;SDS011;48110;47.532;19.078;2022-08-25T14:49:56;9.65;;;2.45;;
62123;SDS011;48110;47.532;19.078;2022-08-25T14:52:59;9.88;;;2.92;;
62123;SDS011;48110;47.532;19.078;2022-08-25T14:56:03;11.20;;;2.97;;
62123;SDS011;48110;47.532;19.078;2022-08-25T14:59:11;19.12;;;3.00;;
62123;SDS011;48110;47.532;19.078;2022-08-25T15:02:15;9.60;;;2.92;;
62123;SDS011;48110;47.532;19.078;2022-08-25T15:05:24;7.37;;;2.67;;
62123;SDS011;48110;47.532;19.078;2022-08-25T15:08:31;10.73;;;3.40;;
62123;SDS011;48110;47.532;19.078;2022-08-25T15:11:54;8.60;;;2.72;;
62123;SDS011;48110;47.532;19.078;2022-08-25T15:14:58;10.35;;;2.95;;
62123;SDS011;48110;47.532;19.078;2022-08-25T15:18:04;13.93;;;3.03;;
62123;SDS011;48110;47.532;19.078;2022-08-25T15:21:07;12.85;;;3.17;;
62123;SDS011;48110;47.532;19.078;2022-08-25T15:24:11;13.35;;;3.00;;
62123;SDS011;48110;47.532;19.078;2022-08-25T15:27:19;12.82;;;3.20;;
62123;SDS011;48110;47.532;19.078;2022-08-25T15:30:23;10.43;;;3.05;;
62123;SDS011;48110;47.532;19.078;2022-08-25T15:33:32;10.43;;;2.75;;
62123;SDS011;48110;47.532;19.078;2022-08-25T15:36:35;11.93;;;2.58;;
62123;SDS011;48110;47.532;19.078;2022-08-25T15:39:40;7.53;;;2.37;;
62123;SDS011;48110;47.532;19.078;2022-08-25T15:42:45;9.20;;;2.90;;
62123;SDS011;48110;47.532;19.078;2022-08-25T15:45:48;7.55;;;2.50;;
62123;SDS011;48110;47.532;19.078;2022-08-25T15:48:52;10.68;;;2.35;;
62123;SDS011;48110;47.532;19.078;2022-08-25T15:51:54;12.10;;;3.00;;
62123;SDS011;48110;47.532;19.078;2022-08-25T15:54:58;12.25;;;3.60;;
62123;SDS011;48110;47.532;19.078;2022-08-25T15:58:01;11.25;;;2.80;;
62123;SDS011;48110;47.532;19.078;2022-08-25T16:01:05;10.63;;;2.80;;
62123;SDS011;48110;47.532;19.078;2022-08-25T16:04:10;12.48;;;3.08;;
62123;SDS011;48110;47.532;19.078;2022-08-25T16:07:13;13.70;;;3.00;;
62123;SDS011;48110;47.532;19.078;2022-08-25T16:10:16;14.48;;;2.80;;
62123;SDS011;48110;47.532;19.078;2022-08-25T16:13:19;16.45;;;3.10;;
62123;SDS011;48110;47.532;19.078;2022-08-25T16:16:23;12.57;;;3.22;;
62123;SDS011;48110;47.532;19.078;2022-08-25T16:19:30;9.15;;;2.85;;
62123;SDS011;48110;47.532;19.078;2022-08-25T16:22:34;11.02;;;2.85;;
62123;SDS011;48110;47.532;19.078;2022-08-25T16:25:40;11.45;;;2.90;;
62123;SDS011;48110;47.532;19.078;2022-08-25T16:28:47;11.25;;;3.30;;
62123;SDS011;48110;47.532;19.078;2022-08-25T16:31:51;9.63;;;2.85;;
62123;SDS011;48110;47.532;19.078;2022-08-25T16:34:56;8.27;;;2.53;;
62123;SDS011;48110;47.532;19.078;2022-08-25T16:37:59;9.00;;;2.95;;
62123;SDS011;48110;47.532;19.078;2022-08-25T16:41:05;11.77;;;2.90;;
62123;SDS011;48110;47.532;19.078;2022-08-25T16:44:13;10.10;;;3.03;;
62123;SDS011;48110;47.532;19.078;2022-08-25T16:47:15;8.57;;;2.50;;
62123;SDS011;48110;47.532;19.078;2022-08-25T16:50:21;10.50;;;3.05;;
62123;SDS011;48110;47.532;19.078;2022-08-25T16:53:24;13.68;;;2.78;;
62123;SDS011;48110;47.532;19.078;2022-08-25T16:56:49;11.10;;;2.85;;
62123;SDS011;48110;47.532;19.078;2022-08-25T16:59:56;7.05;;;3.15;;
62123;SDS011;48110;47.532;19.078;2022-08-25T17:03:00;14.45;;;3.40;;
62123;SDS011;48110;47.532;19.078;2022-08-25T17:06:06;11.75;;;3.75;;
62123;SDS011;48110;47.532;19.078;2022-08-25T17:09:11;8.18;;;3.00;;
62123;SDS011;48110;47.532;19.078;2022-08-25T17:12:24;13.13;;;3.03;;
62123;SDS011;48110;47.532;19.078;2022-08-25T17:15:27;14.60;;;3.40;;
62123;SDS011;48110;47.532;19.078;2022-08-25T17:18:30;8.45;;;2.60;;
62123;SDS011;48110;47.532;19.078;2022-08-25T17:21:34;8.45;;;3.12;;
62123;SDS011;48110;47.532;19.078;2022-08-25T17:24:40;12.82;;;3.33;;
62123;SDS011;48110;47.532;19.078;2022-08-25T17:27:43;6.03;;;2.75;;
62123;SDS011;48110;47.532;19.078;2022-08-25T17:30:46;10.02;;;2.97;;
62123;SDS011;48110;47.532;19.078;2022-08-25T17:33:49;7.68;;;2.95;;
62123;SDS011;48110;47.532;19.078;2022-08-25T17:36:53;11.98;;;3.15;;
62123;SDS011;48110;47.532;19.078;2022-08-25T17:39:57;12.80;;;2.95;;
62123;SDS011;48110;47.532;19.078;2022-08-25T17:43:04;11.82;;;3.10;;
62123;SDS011;48110;47.532;19.078;2022-08-25T17:46:12;11.80;;;3.08;;
62123;SDS011;48110;47.532;19.078;2022-08-25T17:49:16;10.90;;;3.42;;
62123;SDS011;48110;47.532;19.078;2022-08-25T17:52:19;9.82;;;3.22;;
62123;SDS011;48110;47.532;19.078;2022-08-25T17:55:27;18.95;;;3.70;;
62123;SDS011;48110;47.532;19.078;2022-08-25T17:58:29;9.07;;;3.00;;
62123;SDS011;48110;47.532;19.078;2022-08-25T18:01:35;10.77;;;3.28;;
62123;SDS011;48110;47.532;19.078;2022-08-25T18:04:43;15.23;;;4.15;;
62123;SDS011;48110;47.532;19.078;2022-08-25T18:07:46;8.48;;;3.17;;
62123;SDS011;48110;47.532;19.078;2022-08-25T18:10:50;13.18;;;3.50;;
62123;SDS011;48110;47.532;19.078;2022-08-25T18:13:54;10.55;;;3.33;;
62123;SDS011;48110;47.532;19.078;2022-08-25T18:16:57;9.90;;;3.03;;
62123;SDS011;48110;47.532;19.078;2022-08-25T18:20:01;10.15;;;3.50;;
62123;SDS011;48110;47.532;19.078;2022-08-25T18:23:07;9.45;;;3.87;;
62123;SDS011;48110;47.532;19.078;2022-08-25T18:26:11;8.60;;;3.20;;
62123;SDS011;48110;47.532;19.078;2022-08-25T18:29:14;9.18;;;2.97;;
62123;SDS011;48110;47.532;19.078;2022-08-25T18:32:18;12.43;;;3.10;;
62123;SDS011;48110;47.532;19.078;2022-08-25T18:35:27;9.07;;;3.50;;
62123;SDS011;48110;47.532;19.078;2022-08-25T18:38:30;15.07;;;3.33;;
62123;SDS011;48110;47.532;19.078;2022-08-25T18:41:59;11.70;;;3.37;;
62123;SDS011;48110;47.532;19.078;2022-08-25T18:45:03;8.85;;;3.20;;
62123;SDS011;48110;47.532;19.078;2022-08-25T18:48:07;12.77;;;4.25;;
62123;SDS011;48110;47.532;19.078;2022-08-25T18:51:12;14.55;;;3.28;;
62123;SDS011;48110;47.532;19.078;2022-08-25T18:54:17;16.50;;;3.45;;
62123;SDS011;48110;47.532;19.078;2022-08-25T18:57:24;11.38;;;3.15;;
62123;SDS011;48110;47.532;19.078;2022-08-25T19:00:30;11.43;;;3.70;;
62123;SDS011;48110;47.532;19.078;2022-08-25T19:03:33;9.90;;;3.30;;
62123;SDS011;48110;47.532;19.078;2022-08-25T19:06:36;11.35;;;3.05;;
62123;SDS011;48110;47.532;19.078;2022-08-25T19:09:39;10.18;;;3.45;;
62123;SDS011;48110;47.532;19.078;2022-08-25T19:12:42;10.07;;;3.65;;
62123;SDS011;48110;47.532;19.078;2022-08-25T19:15:45;11.82;;;3.30;;
62123;SDS011;48110;47.532;19.078;2022-08-25T19:18:48;9.52;;;3.85;;
62123;SDS011;48110;47.532;19.078;2022-08-25T19:21:53;9.90;;;3.50;;
62123;SDS011;48110;47.532;19.078;2022-08-25T19:24:56;11.30;;;3.50;;
62123;SDS011;48110;47.532;19.078;2022-08-25T19:27:59;9.00;;;3.30;;
62123;SDS011;48110;47.532;19.078;2022-08-25T19:31:02;21.27;;;4.03;;
62123;SDS011;48110;47.532;19.078;2022-08-25T19:34:09;14.15;;;3.35;;
62123;SDS011;48110;47.532;19.078;2022-08-25T19:37:15;9.77;;;3.08;;
62123;SDS011;48110;47.532;19.078;2022-08-25T19:40:24;8.90;;;3.08;;
62123;SDS011;48110;47.532;19.078;2022-08-25T19:43:28;14.40;;;3.25;;
62123;SDS011;48110;47.532;19.078;2022-08-25T19:46:34;8.95;;;3.12;;
62123;SDS011;48110;47.532;19.078;2022-08-25T19:49:53;7.87;;;3.20;;
62123;SDS011;48110;47.532;19.078;2022-08-25T19:52:56;9.40;;;3.42;;
62123;SDS011;48110;47.532;19.078;2022-08-25T19:55:59;10.93;;;3.33;;
62123;SDS011;48110;47.532;19.078;2022-08-25T19:59:03;12.10;;;3.30;;
62123;SDS011;48110;47.532;19.078;2022-08-25T20:02:06;15.30;;;3.90;;
62123;SDS011;48110;47.532;19.078;2022-08-25T20:05:12;11.82;;;3.53;;
62123;SDS011;48110;47.532;19.078;2022-08-25T20:08:16;9.95;;;3.28;;
62123;SDS011;48110;47.532;19.078;2022-08-25T20:11:31;8.10;;;3.55;;
62123;SDS011;48110;47.532;19.078;2022-08-25T20:14:34;15.13;;;3.62;;
62123;SDS011;48110;47.532;19.078;2022-08-25T20:17:38;16.55;;;3.60;;
62123;SDS011;48110;47.532;19.078;2022-08-25T20:20:46;10.20;;;3.55;;
62123;SDS011;48110;47.532;19.078;2022-08-25T20:23:50;12.55;;;3.30;;
62123;SDS011;48110;47.532;19.078;2022-08-25T20:27:11;11.45;;;3.58;;
62123;SDS011;48110;47.532;19.078;2022-08-25T20:30:18;9.98;;;3.80;;